<?xml version="1.0" encoding="utf-8"?>
<gpx xmlns:xsi="http://www.w3.org/2001/XMLSchema-instance" xmlns:xsd="http://www.w3.org/2001/XMLSchema" version="1.1" creator="Shapelink.com" xmlns="http://www.topografix.com/GPX/1/1" xmlns:gpxtpx="http://www.garmin.com/xmlschemas/TrackPointExtension/v1">
  <metadata>
    <name>Övrigt 2.41 km, 2019-06-02</name>
    <desc></desc>
    <author><name>Marian Moron</name></author> 
    <time>2019-06-02T10:50:57Z</time>
  </metadata>
  <trk>
    <name>Övrigt 2.41 km, 2019-06-02</name>
    <trkseg>
      <trkpt lat="51.209766310079" lon="4.405267220195">
        <ele>40.8</ele>
        <time>2019-06-02T10:50:57Z</time>
      </trkpt>
      <trkpt lat="51.209967475679" lon="4.405913297047">
        <ele>27.2</ele>
        <time>2019-06-02T10:51:40Z</time>
      </trkpt>
      <trkpt lat="51.210267212423" lon="4.406477063641">
        <ele>22.6</ele>
        <time>2019-06-02T10:52:07Z</time>
      </trkpt>
      <trkpt lat="51.210288167173" lon="4.406598768829">
        <ele>23.6</ele>
        <time>2019-06-02T10:52:12Z</time>
      </trkpt>
      <trkpt lat="51.210627131209" lon="4.40704963123">
        <ele>29.2</ele>
        <time>2019-06-02T10:52:49Z</time>
      </trkpt>
      <trkpt lat="51.210830057008" lon="4.40754248695">
        <ele>28.4</ele>
        <time>2019-06-02T10:53:21Z</time>
      </trkpt>
      <trkpt lat="51.210816897425" lon="4.407560675673">
        <ele>27.6</ele>
        <time>2019-06-02T10:53:29Z</time>
      </trkpt>
      <trkpt lat="51.210869703395" lon="4.407543408959">
        <ele>27</ele>
        <time>2019-06-02T10:53:36Z</time>
      </trkpt>
      <trkpt lat="51.211156867289" lon="4.40767324459">
        <ele>20.8</ele>
        <time>2019-06-02T10:54:36Z</time>
      </trkpt>
      <trkpt lat="51.211251415121" lon="4.408077922722">
        <ele>25.2</ele>
        <time>2019-06-02T10:54:58Z</time>
      </trkpt>
      <trkpt lat="51.211261305763" lon="4.408148665958">
        <ele>25.6</ele>
        <time>2019-06-02T10:55:02Z</time>
      </trkpt>
      <trkpt lat="51.211363984038" lon="4.407972143144">
        <ele>26.8</ele>
        <time>2019-06-02T10:56:00Z</time>
      </trkpt>
      <trkpt lat="51.211468841607" lon="4.407978094293">
        <ele>24.4</ele>
        <time>2019-06-02T10:56:13Z</time>
      </trkpt>
      <trkpt lat="51.211791125662" lon="4.408373803792">
        <ele>13.8</ele>
        <time>2019-06-02T10:56:43Z</time>
      </trkpt>
      <trkpt lat="51.21207124876" lon="4.408687957404">
        <ele>11</ele>
        <time>2019-06-02T10:57:08Z</time>
      </trkpt>
      <trkpt lat="51.212172921207" lon="4.408680832789">
        <ele>4.8</ele>
        <time>2019-06-02T10:58:03Z</time>
      </trkpt>
      <trkpt lat="51.212229582851" lon="4.408752749491">
        <ele>2.2</ele>
        <time>2019-06-02T10:58:13Z</time>
      </trkpt>
      <trkpt lat="51.212548011232" lon="4.409228254678">
        <ele>16.4</ele>
        <time>2019-06-02T10:58:54Z</time>
      </trkpt>
      <trkpt lat="51.212955203934" lon="4.40921299962">
        <ele>15</ele>
        <time>2019-06-02T10:59:35Z</time>
      </trkpt>
      <trkpt lat="51.212964675481" lon="4.40921048505">
        <ele>15.8</ele>
        <time>2019-06-02T10:59:36Z</time>
      </trkpt>
      <trkpt lat="51.213162655959" lon="4.409253651835">
        <ele>15.2</ele>
        <time>2019-06-02T11:00:08Z</time>
      </trkpt>
      <trkpt lat="51.213599688225" lon="4.409184333522">
        <ele>16</ele>
        <time>2019-06-02T11:00:53Z</time>
      </trkpt>
      <trkpt lat="51.213783587111" lon="4.409062041601">
        <ele>16.6</ele>
        <time>2019-06-02T11:01:14Z</time>
      </trkpt>
      <trkpt lat="51.21408961028" lon="4.409177711821">
        <ele>22.8</ele>
        <time>2019-06-02T11:01:38Z</time>
      </trkpt>
      <trkpt lat="51.214187007958" lon="4.409242000994">
        <ele>26.2</ele>
        <time>2019-06-02T11:01:48Z</time>
      </trkpt>
      <trkpt lat="51.214384569341" lon="4.409334620989">
        <ele>17</ele>
        <time>2019-06-02T11:02:07Z</time>
      </trkpt>
      <trkpt lat="51.214432094714" lon="4.409302769769">
        <ele>16.6</ele>
        <time>2019-06-02T11:02:11Z</time>
      </trkpt>
      <trkpt lat="51.214868959342" lon="4.409206880833">
        <ele>39.2</ele>
        <time>2019-06-02T11:03:21Z</time>
      </trkpt>
      <trkpt lat="51.215301213925" lon="4.409157427623">
        <ele>36.8</ele>
        <time>2019-06-02T11:04:04Z</time>
      </trkpt>
      <trkpt lat="51.21543406704" lon="4.40923311618">
        <ele>28.6</ele>
        <time>2019-06-02T11:04:18Z</time>
      </trkpt>
      <trkpt lat="51.215896999377" lon="4.409219621321">
        <ele>16.6</ele>
        <time>2019-06-02T11:05:01Z</time>
      </trkpt>
      <trkpt lat="51.216339563697" lon="4.409362867992">
        <ele>30.8</ele>
        <time>2019-06-02T11:05:48Z</time>
      </trkpt>
      <trkpt lat="51.216391363839" lon="4.409265051219">
        <ele>29.8</ele>
        <time>2019-06-02T11:05:51Z</time>
      </trkpt>
      <trkpt lat="51.216562354599" lon="4.408947125752">
        <ele>23.6</ele>
        <time>2019-06-02T11:06:07Z</time>
      </trkpt>
      <trkpt lat="51.217013468457" lon="4.408876801611">
        <ele>22.8</ele>
        <time>2019-06-02T11:06:50Z</time>
      </trkpt>
      <trkpt lat="51.217104747348" lon="4.408865737503">
        <ele>23.8</ele>
        <time>2019-06-02T11:07:00Z</time>
      </trkpt>
      <trkpt lat="51.217140202785" lon="4.40890538389">
        <ele>28.4</ele>
        <time>2019-06-02T11:07:12Z</time>
      </trkpt>
      <trkpt lat="51.217226703993" lon="4.408461813742">
        <ele>0</ele>
        <time>2019-06-02T11:09:49Z</time>
      </trkpt>
      <trkpt lat="51.217243635431" lon="4.408623416774">
        <ele>0</ele>
        <time>2019-06-02T11:09:53Z</time>
      </trkpt>
      <trkpt lat="51.217064933323" lon="4.40901434859">
        <ele>18</ele>
        <time>2019-06-02T11:10:13Z</time>
      </trkpt>
      <trkpt lat="51.216894696934" lon="4.409137981615">
        <ele>10.8</ele>
        <time>2019-06-02T11:10:45Z</time>
      </trkpt>
      <trkpt lat="51.21686318099" lon="4.409164468419">
        <ele>8.8</ele>
        <time>2019-06-02T11:10:48Z</time>
      </trkpt>
      <trkpt lat="51.216453641356" lon="4.409213167258">
        <ele>0</ele>
        <time>2019-06-02T11:11:29Z</time>
      </trkpt>
      <trkpt lat="51.216328918684" lon="4.409255076758">
        <ele>0</ele>
        <time>2019-06-02T11:11:42Z</time>
      </trkpt>
      <trkpt lat="51.21587830774" lon="4.409395054488">
        <ele>0.8</ele>
        <time>2019-06-02T11:12:17Z</time>
      </trkpt>
      <trkpt lat="51.215778144035" lon="4.4093320226">
        <ele>4.8</ele>
        <time>2019-06-02T11:12:32Z</time>
      </trkpt>
      <trkpt lat="51.215335579715" lon="4.409267314332">
        <ele>11.8</ele>
        <time>2019-06-02T11:13:08Z</time>
      </trkpt>
      <trkpt lat="51.214888656807" lon="4.409333112247">
        <ele>26.2</ele>
        <time>2019-06-02T11:13:54Z</time>
      </trkpt>
      <trkpt lat="51.21480793911" lon="4.409362532716">
        <ele>29.8</ele>
        <time>2019-06-02T11:14:02Z</time>
      </trkpt>
      <trkpt lat="51.214576011937" lon="4.409363287087">
        <ele>35.2</ele>
        <time>2019-06-02T11:14:42Z</time>
      </trkpt>
      <trkpt lat="51.214532761333" lon="4.40942925264">
        <ele>33.8</ele>
        <time>2019-06-02T11:14:51Z</time>
      </trkpt>
      <trkpt lat="51.214469645626" lon="4.409400083628">
        <ele>29.8</ele>
        <time>2019-06-02T11:15:09Z</time>
      </trkpt>
      <trkpt lat="51.214490516557" lon="4.409351552427">
        <ele>24.6</ele>
        <time>2019-06-02T11:16:14Z</time>
      </trkpt>
      <trkpt lat="51.214540388862" lon="4.409431851029">
        <ele>16.2</ele>
        <time>2019-06-02T11:16:48Z</time>
      </trkpt>
      <trkpt lat="51.214564109639" lon="4.40977793968">
        <ele>8.4</ele>
        <time>2019-06-02T11:17:08Z</time>
      </trkpt>
      <trkpt lat="51.214573665005" lon="4.410252941953">
        <ele>1.2</ele>
        <time>2019-06-02T11:17:32Z</time>
      </trkpt>
      <trkpt lat="51.21466712319" lon="4.410283116793">
        <ele>1.2</ele>
        <time>2019-06-02T11:17:44Z</time>
      </trkpt>
      <trkpt lat="51.214722779006" lon="4.410307172846">
        <ele>4.6</ele>
        <time>2019-06-02T11:17:54Z</time>
      </trkpt>
      <trkpt lat="51.214746499783" lon="4.4103210868">
        <ele>7</ele>
        <time>2019-06-02T11:18:02Z</time>
      </trkpt>
      <trkpt lat="51.214722695187" lon="4.410331731813">
        <ele>10.8</ele>
        <time>2019-06-02T11:21:39Z</time>
      </trkpt>
      <trkpt lat="51.214670056855" lon="4.410314046004">
        <ele>10.4</ele>
        <time>2019-06-02T11:21:59Z</time>
      </trkpt>
      <trkpt lat="51.214690843967" lon="4.410299461498">
        <ele>11.2</ele>
        <time>2019-06-02T11:22:11Z</time>
      </trkpt>
      <trkpt lat="51.21461766998" lon="4.410305580285">
        <ele>10</ele>
        <time>2019-06-02T11:22:24Z</time>
      </trkpt>
      <trkpt lat="51.21458665695" lon="4.41031521947">
        <ele>10.6</ele>
        <time>2019-06-02T11:22:27Z</time>
      </trkpt>
      <trkpt lat="51.214516835723" lon="4.409776766214">
        <ele>5.8</ele>
        <time>2019-06-02T11:23:03Z</time>
      </trkpt>
      <trkpt lat="51.214548267848" lon="4.409308218004">
        <ele>7.8</ele>
        <time>2019-06-02T11:23:39Z</time>
      </trkpt>
      <trkpt lat="51.214536030274" lon="4.409344846907">
        <ele>14.2</ele>
        <time>2019-06-02T11:23:57Z</time>
      </trkpt>
      <trkpt lat="51.214483727218" lon="4.409398071972">
        <ele>20.2</ele>
        <time>2019-06-02T11:24:10Z</time>
      </trkpt>
      <trkpt lat="51.214474842404" lon="4.409463869887">
        <ele>20.4</ele>
        <time>2019-06-02T11:35:12Z</time>
      </trkpt>
      <trkpt lat="51.214473920395" lon="4.409466384457">
        <ele>20</ele>
        <time>2019-06-02T11:35:19Z</time>
      </trkpt>
      <trkpt lat="51.214489259272" lon="4.409431264296">
        <ele>18.2</ele>
        <time>2019-06-02T11:37:02Z</time>
      </trkpt>
      <trkpt lat="51.214451121627" lon="4.409513993649">
        <ele>17.6</ele>
        <time>2019-06-02T11:37:11Z</time>
      </trkpt>
      <trkpt lat="51.214464532667" lon="4.409442747499">
        <ele>16.4</ele>
        <time>2019-06-02T11:37:45Z</time>
      </trkpt>
      <trkpt lat="51.214461431364" lon="4.409441909309">
        <ele>16.6</ele>
        <time>2019-06-02T11:37:54Z</time>
      </trkpt>
      <trkpt lat="51.214503843778" lon="4.409472503244">
        <ele>16.2</ele>
        <time>2019-06-02T11:38:12Z</time>
      </trkpt>
      <trkpt lat="51.214520272302" lon="4.409479208764">
        <ele>14.6</ele>
        <time>2019-06-02T11:40:49Z</time>
      </trkpt>
      <trkpt lat="51.214499820466" lon="4.409476023642">
        <ele>14.6</ele>
        <time>2019-06-02T11:40:57Z</time>
      </trkpt>
      <trkpt lat="51.214485906512" lon="4.409480968963">
        <ele>8.2</ele>
        <time>2019-06-02T11:45:24Z</time>
      </trkpt>
      <trkpt lat="51.21440812248" lon="4.409437802178">
        <ele>9.4</ele>
        <time>2019-06-02T11:46:02Z</time>
      </trkpt>
      <trkpt lat="51.214392951241" lon="4.409439730015">
        <ele>3</ele>
        <time>2019-06-02T11:46:30Z</time>
      </trkpt>
      <trkpt lat="51.214082485665" lon="4.409351133332">
        <ele>0</ele>
        <time>2019-06-02T11:47:15Z</time>
      </trkpt>
      <trkpt lat="51.213974526793" lon="4.409246191944">
        <ele>12.4</ele>
        <time>2019-06-02T11:47:34Z</time>
      </trkpt>
      <trkpt lat="51.213928007248" lon="4.409105627481">
        <ele>19.8</ele>
        <time>2019-06-02T11:47:44Z</time>
      </trkpt>
      <trkpt lat="51.21398148377" lon="4.408569521157">
        <ele>17.2</ele>
        <time>2019-06-02T11:48:03Z</time>
      </trkpt>
      <trkpt lat="51.213991877326" lon="4.408526438191">
        <ele>17.6</ele>
        <time>2019-06-02T11:48:05Z</time>
      </trkpt>
      <trkpt lat="51.213967988911" lon="4.40822058266">
        <ele>14.2</ele>
        <time>2019-06-02T11:48:20Z</time>
      </trkpt>
      <trkpt lat="51.213893390001" lon="4.407503594934">
        <ele>1.4</ele>
        <time>2019-06-02T11:48:53Z</time>
      </trkpt>
      <trkpt lat="51.213839997298" lon="4.407363533385">
        <ele>0.8</ele>
        <time>2019-06-02T11:49:02Z</time>
      </trkpt>
      <trkpt lat="51.213591893058" lon="4.407231267003">
        <ele>10.6</ele>
        <time>2019-06-02T11:49:18Z</time>
      </trkpt>
      <trkpt lat="51.213229878797" lon="4.407137473542">
        <ele>20.6</ele>
        <time>2019-06-02T11:49:47Z</time>
      </trkpt>
      <trkpt lat="51.212787649753" lon="4.407276445444">
        <ele>32.4</ele>
        <time>2019-06-02T11:50:17Z</time>
      </trkpt>
      <trkpt lat="51.212630237671" lon="4.407497140871">
        <ele>2.6</ele>
        <time>2019-06-02T11:50:42Z</time>
      </trkpt>
      <trkpt lat="51.212217177639" lon="4.407398150632">
        <ele>11.8</ele>
        <time>2019-06-02T11:51:11Z</time>
      </trkpt>
      <trkpt lat="51.211920123103" lon="4.407528321539">
        <ele>3</ele>
        <time>2019-06-02T11:51:36Z</time>
      </trkpt>
      <trkpt lat="51.21155492372" lon="4.40767073002">
        <ele>12.6</ele>
        <time>2019-06-02T11:52:03Z</time>
      </trkpt>
      <trkpt lat="51.211119651653" lon="4.40772605056">
        <ele>27.8</ele>
        <time>2019-06-02T11:52:36Z</time>
      </trkpt>
      <trkpt lat="51.211093500125" lon="4.407701407774">
        <ele>24.8</ele>
        <time>2019-06-02T11:52:47Z</time>
      </trkpt>
      <trkpt lat="51.211054608109" lon="4.407711549873">
        <ele>24.4</ele>
        <time>2019-06-02T11:52:51Z</time>
      </trkpt>
      <trkpt lat="51.210857968735" lon="4.407657235161">
        <ele>16.2</ele>
        <time>2019-06-02T11:53:13Z</time>
      </trkpt>
      <trkpt lat="51.210455972811" lon="4.407404604695">
        <ele>6.4</ele>
        <time>2019-06-02T11:53:44Z</time>
      </trkpt>
      <trkpt lat="51.210243240189" lon="4.406981654021">
        <ele>2.8</ele>
        <time>2019-06-02T11:54:06Z</time>
      </trkpt>
      <trkpt lat="51.209893212045" lon="4.406465915714">
        <ele>0</ele>
        <time>2019-06-02T11:54:37Z</time>
      </trkpt>
      <trkpt lat="51.209800927326" lon="4.406238095672">
        <ele>0</ele>
        <time>2019-06-02T11:54:52Z</time>
      </trkpt>
      <trkpt lat="51.209749965374" lon="4.406112618629">
        <ele>0</ele>
        <time>2019-06-02T11:55:00Z</time>
      </trkpt>
      <trkpt lat="51.209640665398" lon="4.40559201882">
        <ele>0</ele>
        <time>2019-06-02T11:55:27Z</time>
      </trkpt>
      <trkpt lat="51.209558858054" lon="4.405239224649">
        <ele>0</ele>
        <time>2019-06-02T11:55:48Z</time>
      </trkpt>
    </trkseg>
  </trk>
</gpx>